createdAt,value
2023-05-01T00:01:17.599Z,5.00
2023-05-01T00:02:40.036Z,5.00
2023-05-01T00:04:02.346Z,5.00
2023-05-01T00:05:24.533Z,4.90
2023-05-01T00:06:46.878Z,4.90
2023-05-01T00:08:09.134Z,4.90
2023-05-01T00:09:32.204Z,4.90
2023-05-01T00:10:54.402Z,4.80
2023-05-01T00:12:16.412Z,4.80
2023-05-01T00:13:38.648Z,4.80
2023-05-01T00:15:00.669Z,4.80
2023-05-01T00:16:22.980Z,4.80
2023-05-01T00:17:45.168Z,4.90
2023-05-01T00:19:08.192Z,4.90
2023-05-01T00:20:30.902Z,4.80
2023-05-01T00:21:53.358Z,4.90
2023-05-01T00:23:15.426Z,4.90
2023-05-01T00:24:37.526Z,4.90
2023-05-01T00:25:59.628Z,4.90
2023-05-01T00:27:21.749Z,4.80
2023-05-01T00:28:43.771Z,4.90
2023-05-01T00:30:07.367Z,4.80
2023-05-01T00:31:29.569Z,4.80
2023-05-01T00:32:51.698Z,4.80
2023-05-01T00:34:14.186Z,4.80
2023-05-01T00:35:36.299Z,4.80
2023-05-01T00:36:58.928Z,4.80
2023-05-01T00:38:20.905Z,4.80
2023-05-01T00:39:43.077Z,4.80
2023-05-01T00:41:05.122Z,4.80
2023-05-01T00:42:27.280Z,4.80
2023-05-01T00:43:49.333Z,4.80
2023-05-01T00:45:11.672Z,4.70
2023-05-01T00:46:35.004Z,4.70
2023-05-01T00:47:57.189Z,4.70
2023-05-01T00:49:20.593Z,4.70
2023-05-01T00:50:45.541Z,4.60
2023-05-01T00:52:09.764Z,4.60
2023-05-01T00:53:33.867Z,4.60
2023-05-01T00:54:56.751Z,4.60
2023-05-01T00:56:19.022Z,4.60
2023-05-01T00:57:41.156Z,4.50
2023-05-01T00:59:03.421Z,4.60
2023-05-01T01:00:25.525Z,4.50
2023-05-01T01:01:47.750Z,4.50
2023-05-01T01:03:10.410Z,4.50
2023-05-01T01:04:33.478Z,4.50
2023-05-01T01:06:15.422Z,4.50
2023-05-01T01:07:50.918Z,4.50
2023-05-01T01:09:12.955Z,4.50
2023-05-01T01:10:51.037Z,4.50
2023-05-01T01:12:52.547Z,4.50
2023-05-01T01:14:33.093Z,4.50
2023-05-01T01:16:31.830Z,4.50
2023-05-01T01:18:05.528Z,4.50
2023-05-01T01:19:49.248Z,4.50
2023-05-01T01:21:11.277Z,4.50
2023-05-01T01:22:36.250Z,4.40
2023-05-01T01:24:09.989Z,4.40
2023-05-01T01:25:55.706Z,4.40
2023-05-01T01:27:36.097Z,4.40
2023-05-01T01:29:07.029Z,4.40
2023-05-01T01:30:45.631Z,4.30
2023-05-01T01:32:26.773Z,4.30
2023-05-01T01:33:58.934Z,4.30
2023-05-01T01:35:26.975Z,4.30
2023-05-01T01:37:02.682Z,4.30
2023-05-01T01:38:56.551Z,4.30
2023-05-01T01:40:24.218Z,4.30
2023-05-01T01:41:51.204Z,4.30
2023-05-01T01:43:17.088Z,4.30
2023-05-01T01:44:47.851Z,4.30
2023-05-01T01:46:11.557Z,4.30
2023-05-01T01:47:34.809Z,4.30
2023-05-01T01:48:59.306Z,4.30
2023-05-01T01:50:25.805Z,4.30
2023-05-01T01:51:49.974Z,4.30
2023-05-01T01:53:15.919Z,4.30
2023-05-01T01:54:47.102Z,4.30
2023-05-01T01:56:10.128Z,4.30
2023-05-01T01:57:33.468Z,4.20
2023-05-01T01:58:57.089Z,4.30
2023-05-01T02:00:20.605Z,4.30
2023-05-01T02:01:44.672Z,4.30
2023-05-01T02:03:07.808Z,4.20
2023-05-01T02:04:31.496Z,4.30
2023-05-01T02:05:56.631Z,4.20
2023-05-01T02:07:20.626Z,4.20
2023-05-01T02:08:45.864Z,4.20
2023-05-01T02:10:11.259Z,4.20
2023-05-01T02:11:36.901Z,4.20
2023-05-01T02:13:00.446Z,4.30
2023-05-01T02:14:25.081Z,4.20
2023-05-01T02:15:48.753Z,4.30
2023-05-01T02:17:11.766Z,4.20
2023-05-01T02:18:34.481Z,4.20
2023-05-01T02:19:58.849Z,4.20
2023-05-01T02:21:28.048Z,4.20
2023-05-01T02:22:53.226Z,4.30
2023-05-01T02:24:15.865Z,4.20
2023-05-01T02:25:39.650Z,4.30
2023-05-01T02:27:07.250Z,4.20
2023-05-01T02:28:30.657Z,4.20
2023-05-01T02:29:53.715Z,4.20
2023-05-01T02:31:15.887Z,4.30
2023-05-01T02:32:38.085Z,4.30
2023-05-01T02:34:00.160Z,4.30
2023-05-01T02:35:22.220Z,4.20
2023-05-01T02:36:44.331Z,4.20
2023-05-01T02:38:06.523Z,4.20
2023-05-01T02:39:28.609Z,4.30
2023-05-01T02:40:55.812Z,4.20
2023-05-01T02:42:19.434Z,4.30
2023-05-01T02:43:42.598Z,4.30
2023-05-01T02:45:07.760Z,4.30
2023-05-01T02:46:33.205Z,4.30
2023-05-01T02:47:59.542Z,4.30
2023-05-01T02:49:22.627Z,4.30
2023-05-01T02:50:46.127Z,4.30
2023-05-01T02:52:09.091Z,4.30
2023-05-01T02:53:33.449Z,4.20
2023-05-01T02:54:56.855Z,4.30
2023-05-01T02:56:19.197Z,4.20
2023-05-01T02:57:41.894Z,4.20
2023-05-01T02:59:03.970Z,4.30
2023-05-01T03:00:27.049Z,4.20
2023-05-01T03:01:49.244Z,4.20
2023-05-01T03:03:14.040Z,4.20
2023-05-01T03:04:36.258Z,4.20
2023-05-01T03:05:58.447Z,4.20
2023-05-01T03:07:20.595Z,4.20
2023-05-01T03:08:43.150Z,4.20
2023-05-01T03:10:06.771Z,4.20
2023-05-01T03:11:28.784Z,4.20
2023-05-01T03:12:50.844Z,4.20
2023-05-01T03:14:12.967Z,4.20
2023-05-01T03:15:34.985Z,4.20
2023-05-01T03:16:57.221Z,4.20
2023-05-01T03:18:19.310Z,4.20
2023-05-01T03:19:42.355Z,4.20
2023-05-01T03:21:04.578Z,4.20
2023-05-01T03:22:29.567Z,4.20
2023-05-01T03:23:51.617Z,4.20
2023-05-01T03:25:14.014Z,4.20
2023-05-01T03:26:36.117Z,4.20
2023-05-01T03:27:58.172Z,4.20
2023-05-01T03:29:20.274Z,4.20
2023-05-01T03:30:43.830Z,4.20
2023-05-01T03:32:06.452Z,4.20
2023-05-01T03:33:28.548Z,4.20
2023-05-01T03:34:50.658Z,4.20
2023-05-01T03:36:13.229Z,4.20
2023-05-01T03:37:36.042Z,4.20
2023-05-01T03:38:58.053Z,4.20
2023-05-01T03:40:20.028Z,4.30
2023-05-01T03:41:42.096Z,4.30
2023-05-01T03:43:04.159Z,4.30
2023-05-01T03:44:26.288Z,4.30
2023-05-01T03:45:48.406Z,4.40
2023-05-01T03:47:10.709Z,4.40
2023-05-01T03:48:32.788Z,4.50
2023-05-01T03:49:55.389Z,4.50
2023-05-01T03:51:17.613Z,4.50
2023-05-01T03:52:39.656Z,4.60
2023-05-01T03:54:01.712Z,4.60
2023-05-01T03:55:23.792Z,4.60
2023-05-01T03:56:46.299Z,4.70
2023-05-01T03:58:08.557Z,4.70
2023-05-01T03:59:30.880Z,4.80
2023-05-01T04:00:56.834Z,4.80
2023-05-01T04:02:18.991Z,4.90
2023-05-01T04:03:41.099Z,4.90
2023-05-01T04:05:03.337Z,5.00
2023-05-01T04:06:26.151Z,5.00
2023-05-01T04:07:48.223Z,5.10
2023-05-01T04:09:10.986Z,5.20
2023-05-01T04:10:33.274Z,5.30
2023-05-01T04:11:55.490Z,5.50
2023-05-01T04:13:17.638Z,5.80
2023-05-01T04:14:39.744Z,6.30
2023-05-01T04:16:02.042Z,7.10
2023-05-01T04:17:24.155Z,7.80
2023-05-01T04:18:46.226Z,8.70
2023-05-01T04:20:08.575Z,9.60
2023-05-01T04:21:31.020Z,10.40
2023-05-01T04:22:53.057Z,11.20
2023-05-01T04:24:16.585Z,11.90
2023-05-01T04:25:38.883Z,12.50
2023-05-01T04:27:00.937Z,13.10
2023-05-01T04:28:23.232Z,13.50
2023-05-01T04:29:45.758Z,13.90
2023-05-01T04:31:07.844Z,14.20
2023-05-01T04:32:31.296Z,14.50
2023-05-01T04:33:53.609Z,14.80
2023-05-01T04:35:16.590Z,15.20
2023-05-01T04:36:38.704Z,15.40
2023-05-01T04:38:00.956Z,15.60
2023-05-01T04:39:23.814Z,15.80
2023-05-01T04:40:46.114Z,16.00
2023-05-01T04:42:08.204Z,16.10
2023-05-01T04:43:30.252Z,16.20
2023-05-01T04:44:52.292Z,16.30
2023-05-01T04:46:14.702Z,16.40
2023-05-01T04:47:36.765Z,16.50
2023-05-01T04:48:58.830Z,16.50
2023-05-01T04:50:21.050Z,16.50
2023-05-01T04:51:43.074Z,16.50
2023-05-01T04:53:05.137Z,16.70
2023-05-01T04:54:28.010Z,17.00
2023-05-01T04:55:50.782Z,17.30
2023-05-01T04:57:12.809Z,17.50
2023-05-01T04:58:34.851Z,17.70
2023-05-01T04:59:57.360Z,18.00
2023-05-01T05:01:19.905Z,18.20
2023-05-01T05:02:42.040Z,18.40
2023-05-01T05:04:04.378Z,18.60
2023-05-01T05:05:28.975Z,18.80
2023-05-01T05:06:51.023Z,18.80
2023-05-01T05:08:13.106Z,18.90
2023-05-01T05:09:35.258Z,19.00
2023-05-01T05:10:59.288Z,19.10
2023-05-01T05:12:21.499Z,19.20
2023-05-01T05:13:43.469Z,19.30
2023-05-01T05:15:06.131Z,19.30
2023-05-01T05:16:28.370Z,19.20
2023-05-01T05:17:50.602Z,19.30
2023-05-01T05:19:12.681Z,19.30
2023-05-01T05:20:38.918Z,19.20
2023-05-01T05:22:04.145Z,19.20
2023-05-01T05:23:26.174Z,19.30
2023-05-01T05:24:54.507Z,19.40
2023-05-01T05:26:16.855Z,19.30
2023-05-01T05:27:38.871Z,19.30
2023-05-01T05:29:00.991Z,19.10
2023-05-01T05:30:23.016Z,19.10
2023-05-01T05:31:45.499Z,19.10
2023-05-01T05:33:08.722Z,18.90
2023-05-01T05:34:30.826Z,18.70
2023-05-01T05:35:52.931Z,18.50
2023-05-01T05:37:15.541Z,18.50
2023-05-01T05:38:38.579Z,18.40
2023-05-01T05:40:00.581Z,18.30
2023-05-01T05:41:22.819Z,18.50
2023-05-01T05:42:44.923Z,18.30
2023-05-01T05:44:07.073Z,18.30
2023-05-01T05:45:29.348Z,18.10
2023-05-01T05:46:51.465Z,18.10
2023-05-01T05:48:14.312Z,18.00
2023-05-01T05:49:36.485Z,17.90
2023-05-01T05:50:58.649Z,17.70
2023-05-01T05:52:21.134Z,17.70
2023-05-01T05:53:43.198Z,17.60
2023-05-01T05:55:05.829Z,17.40
2023-05-01T05:56:27.894Z,17.20
2023-05-01T05:57:49.973Z,16.80
2023-05-01T05:59:12.432Z,16.50
2023-05-01T06:00:34.569Z,16.20
2023-05-01T06:01:56.642Z,16.00
2023-05-01T06:03:19.436Z,15.80
2023-05-01T06:04:41.626Z,15.60
2023-05-01T06:06:04.122Z,15.40
2023-05-01T06:07:26.484Z,15.30
2023-05-01T06:08:48.578Z,15.20
2023-05-01T06:10:11.648Z,14.90
2023-05-01T06:11:33.763Z,14.70
2023-05-01T06:13:01.142Z,14.40
2023-05-01T06:14:35.902Z,14.10
2023-05-01T06:15:58.014Z,13.70
2023-05-01T06:17:20.394Z,13.50
2023-05-01T06:18:44.463Z,13.30
2023-05-01T06:20:08.565Z,13.00
2023-05-01T06:21:32.504Z,12.80
2023-05-01T06:22:54.660Z,12.70
2023-05-01T06:24:16.838Z,12.50
2023-05-01T06:25:39.383Z,12.40
2023-05-01T06:27:02.146Z,12.30
2023-05-01T06:28:24.239Z,12.30
2023-05-01T06:29:46.470Z,12.30
2023-05-01T06:31:08.560Z,12.30
2023-05-01T06:32:30.791Z,12.20
2023-05-01T06:33:52.899Z,12.20
2023-05-01T06:35:15.116Z,12.10
2023-05-01T06:36:37.390Z,12.10
2023-05-01T06:38:00.311Z,12.10
2023-05-01T06:39:22.522Z,12.10
2023-05-01T06:40:47.047Z,12.20
2023-05-01T06:42:11.915Z,12.20
2023-05-01T06:43:34.086Z,12.10
2023-05-01T06:44:56.176Z,12.10
2023-05-01T06:46:18.399Z,12.00
2023-05-01T06:47:40.711Z,12.00
2023-05-01T06:49:02.884Z,12.00
2023-05-01T06:50:25.067Z,12.10
2023-05-01T06:51:47.218Z,12.10
2023-05-01T06:53:09.278Z,12.30
2023-05-01T06:54:31.556Z,12.40
2023-05-01T06:55:53.636Z,12.50
2023-05-01T06:57:15.789Z,12.60
2023-05-01T06:58:37.889Z,12.60
2023-05-01T07:00:00.093Z,12.70
2023-05-01T07:01:22.486Z,12.70
2023-05-01T07:02:46.062Z,12.80
2023-05-01T07:04:08.424Z,12.70
2023-05-01T07:05:30.985Z,12.70
2023-05-01T07:06:53.229Z,12.60
2023-05-01T07:08:15.367Z,12.60
2023-05-01T07:09:37.433Z,12.70
2023-05-01T07:10:59.564Z,12.70
2023-05-01T07:12:22.578Z,12.80
2023-05-01T07:13:44.811Z,12.80
2023-05-01T07:15:08.083Z,12.80
2023-05-01T07:16:30.256Z,12.70
2023-05-01T07:17:52.544Z,12.70
2023-05-01T07:19:14.809Z,12.70
2023-05-01T07:20:36.936Z,12.80
2023-05-01T07:21:59.092Z,12.80
2023-05-01T07:23:23.624Z,12.90
2023-05-01T07:24:45.804Z,12.90
2023-05-01T07:26:08.045Z,13.00
2023-05-01T07:27:30.270Z,13.10
2023-05-01T07:28:52.697Z,13.10
2023-05-01T07:30:14.909Z,13.10
2023-05-01T07:31:39.096Z,13.20
2023-05-01T07:33:01.773Z,13.20
2023-05-01T07:34:24.060Z,13.20
2023-05-01T07:35:46.508Z,13.30
2023-05-01T07:37:08.548Z,13.30
2023-05-01T07:38:30.955Z,13.30
2023-05-01T07:39:53.144Z,13.40
2023-05-01T07:41:15.318Z,13.40
2023-05-01T07:42:37.404Z,13.40
2023-05-01T07:44:00.067Z,13.40
2023-05-01T07:45:22.245Z,13.40
2023-05-01T07:46:44.712Z,13.40
2023-05-01T07:48:07.127Z,13.50
2023-05-01T07:49:29.234Z,13.50
2023-05-01T07:50:51.524Z,13.40
2023-05-01T07:52:15.468Z,13.40
2023-05-01T07:53:38.134Z,13.50
2023-05-01T07:55:00.351Z,13.50
2023-05-01T07:56:22.471Z,13.60
2023-05-01T07:57:44.732Z,13.70
2023-05-01T07:59:06.789Z,13.70
2023-05-01T08:00:29.434Z,13.80
2023-05-01T08:01:51.591Z,13.80
2023-05-01T08:03:13.869Z,13.90
2023-05-01T08:04:36.307Z,13.90
2023-05-01T08:05:58.882Z,14.00
2023-05-01T08:07:20.965Z,14.10
2023-05-01T08:08:43.146Z,14.10
2023-05-01T08:10:06.007Z,14.10
2023-05-01T08:11:29.493Z,14.10
2023-05-01T08:12:51.548Z,14.10
2023-05-01T08:14:13.675Z,14.10
2023-05-01T08:15:39.053Z,14.20
2023-05-01T08:17:01.223Z,14.30
2023-05-01T08:18:23.482Z,14.40
2023-05-01T08:19:45.677Z,14.40
2023-05-01T08:21:07.802Z,14.50
2023-05-01T08:22:30.077Z,14.50
2023-05-01T08:23:53.618Z,14.60
2023-05-01T08:25:15.885Z,14.60
2023-05-01T08:26:38.367Z,14.60
2023-05-01T08:28:00.558Z,14.60
2023-05-01T08:29:22.647Z,14.60
2023-05-01T08:30:44.736Z,14.70
2023-05-01T08:32:06.887Z,14.70
2023-05-01T08:33:29.043Z,14.70
2023-05-01T08:34:51.202Z,14.80
2023-05-01T08:36:13.747Z,14.80
2023-05-01T08:37:36.214Z,14.90
2023-05-01T08:38:58.497Z,15.00
2023-05-01T08:40:20.830Z,15.00
2023-05-01T08:41:47.249Z,15.00
2023-05-01T08:43:09.820Z,15.00
2023-05-01T08:44:32.523Z,15.00
2023-05-01T08:45:58.145Z,15.00
2023-05-01T08:47:22.587Z,15.10
2023-05-01T08:48:45.763Z,15.20
2023-05-01T08:50:14.221Z,15.20
2023-05-01T08:51:38.352Z,15.30
2023-05-01T08:53:01.741Z,15.30
2023-05-01T08:54:25.042Z,15.30
2023-05-01T08:55:49.116Z,15.30
2023-05-01T08:57:12.785Z,15.30
2023-05-01T08:58:35.848Z,15.40
2023-05-01T08:59:58.958Z,15.50
2023-05-01T09:01:23.420Z,15.60
2023-05-01T09:02:48.119Z,15.70
2023-05-01T09:04:11.877Z,15.80
2023-05-01T09:05:34.272Z,15.90
2023-05-01T09:06:56.850Z,15.90
2023-05-01T09:08:18.911Z,15.90
2023-05-01T09:09:41.077Z,16.00
2023-05-01T09:11:04.099Z,16.10
2023-05-01T09:12:27.477Z,16.10
2023-05-01T09:13:49.657Z,16.20
2023-05-01T09:15:12.530Z,16.20
2023-05-01T09:16:34.956Z,16.10
2023-05-01T09:18:03.308Z,16.10
2023-05-01T09:19:27.149Z,16.00
2023-05-01T09:20:49.265Z,16.00
2023-05-01T09:22:11.366Z,16.00
2023-05-01T09:23:35.963Z,16.10
2023-05-01T09:24:59.110Z,16.10
2023-05-01T09:26:21.916Z,16.30
2023-05-01T09:27:45.488Z,16.30
2023-05-01T09:29:10.185Z,16.40
2023-05-01T09:30:33.445Z,16.40
2023-05-01T09:32:12.588Z,16.50
2023-05-01T09:33:35.246Z,16.60
2023-05-01T09:35:11.322Z,16.70
2023-05-01T09:36:34.487Z,16.80
2023-05-01T09:37:56.680Z,16.90
2023-05-01T09:39:23.830Z,16.90
2023-05-01T09:40:47.041Z,17.00
2023-05-01T09:42:09.603Z,17.10
2023-05-01T09:43:31.891Z,17.10
2023-05-01T09:44:54.562Z,17.10
2023-05-01T09:46:16.921Z,17.10
2023-05-01T09:47:40.044Z,17.00
2023-05-01T09:49:03.378Z,17.00
2023-05-01T09:50:30.301Z,17.00
2023-05-01T09:51:52.391Z,17.00
2023-05-01T09:53:14.802Z,17.00
2023-05-01T09:54:36.939Z,16.90
2023-05-01T09:56:02.487Z,16.90
2023-05-01T09:57:38.221Z,16.90
2023-05-01T09:59:16.355Z,16.90
2023-05-01T10:00:56.715Z,16.90
2023-05-01T10:02:31.781Z,17.00
2023-05-01T10:03:55.011Z,17.00
2023-05-01T10:05:17.943Z,17.20
2023-05-01T10:06:40.913Z,17.20
2023-05-01T10:08:05.342Z,17.20
2023-05-01T10:09:28.941Z,17.40
2023-05-01T10:11:05.162Z,17.40
2023-05-01T10:12:28.876Z,17.40
2023-05-01T10:14:08.785Z,17.30
2023-05-01T10:15:37.775Z,17.30
2023-05-01T10:17:00.014Z,17.30
2023-05-01T10:18:23.479Z,17.40
2023-05-01T10:19:46.595Z,17.40
2023-05-01T10:21:10.557Z,17.30
2023-05-01T10:22:32.645Z,17.40
2023-05-01T10:23:55.694Z,17.40
2023-05-01T10:25:18.702Z,17.50
2023-05-01T10:26:43.068Z,17.50
2023-05-01T10:28:06.320Z,17.60
2023-05-01T10:29:31.676Z,17.60
2023-05-01T10:30:54.977Z,17.70
2023-05-01T10:32:17.034Z,17.70
2023-05-01T10:33:43.437Z,17.80
2023-05-01T10:35:21.618Z,17.70
2023-05-01T10:36:54.966Z,17.80
2023-05-01T10:38:26.066Z,17.80
2023-05-01T10:39:48.209Z,17.80
2023-05-01T10:41:10.719Z,18.00
2023-05-01T10:42:32.868Z,18.00
2023-05-01T10:44:24.368Z,18.10
2023-05-01T10:45:47.930Z,18.10
2023-05-01T10:47:25.487Z,18.20
2023-05-01T10:48:47.724Z,18.30
2023-05-01T10:50:15.700Z,18.40
2023-05-01T10:52:04.121Z,18.40
2023-05-01T10:53:26.268Z,18.50
2023-05-01T10:54:48.419Z,18.50
2023-05-01T10:56:26.543Z,18.50
2023-05-01T10:57:48.647Z,18.60
2023-05-01T10:59:11.618Z,18.80
2023-05-01T11:00:34.341Z,18.90
2023-05-01T11:01:56.522Z,18.90
2023-05-01T11:03:21.529Z,18.80
2023-05-01T11:04:49.153Z,18.80
2023-05-01T11:06:11.576Z,18.80
2023-05-01T11:07:35.295Z,18.80
2023-05-01T11:08:57.688Z,18.80
2023-05-01T11:10:27.153Z,18.80
2023-05-01T11:11:49.924Z,18.90
2023-05-01T11:13:12.214Z,18.90
2023-05-01T11:15:05.864Z,18.80
2023-05-01T11:16:37.548Z,18.80
2023-05-01T11:18:01.496Z,18.90
2023-05-01T11:19:23.536Z,18.90
2023-05-01T11:20:47.241Z,18.90
2023-05-01T11:22:13.512Z,18.90
2023-05-01T11:23:36.965Z,18.90
2023-05-01T11:24:59.270Z,18.90
2023-05-01T11:26:23.328Z,18.90
2023-05-01T11:27:49.390Z,18.90
2023-05-01T11:29:12.222Z,19.00
2023-05-01T11:30:41.127Z,19.00
2023-05-01T11:32:03.477Z,19.10
2023-05-01T11:33:26.258Z,19.10
2023-05-01T11:34:51.124Z,19.10
2023-05-01T11:36:14.188Z,19.10
2023-05-01T11:37:44.262Z,19.10
2023-05-01T11:39:14.345Z,19.20
2023-05-01T11:40:36.852Z,19.30
2023-05-01T11:42:09.783Z,19.40
2023-05-01T11:43:32.064Z,19.40
2023-05-01T11:45:13.081Z,19.40
2023-05-01T11:46:35.236Z,19.40
2023-05-01T11:47:57.878Z,19.30
2023-05-01T11:49:28.153Z,19.40
2023-05-01T11:50:50.580Z,19.30
2023-05-01T11:52:12.762Z,19.30
2023-05-01T11:53:34.815Z,19.20
2023-05-01T11:54:56.904Z,19.20
2023-05-01T11:56:26.574Z,19.20
2023-05-01T11:57:51.046Z,19.30
2023-05-01T11:59:18.908Z,19.40
2023-05-01T12:00:43.095Z,19.30
2023-05-01T12:02:05.343Z,19.30
2023-05-01T12:03:28.305Z,19.30
2023-05-01T12:04:50.424Z,19.40
2023-05-01T12:06:13.773Z,19.40
2023-05-01T12:07:37.557Z,19.40
2023-05-01T12:08:59.647Z,19.40
2023-05-01T12:10:22.032Z,19.40
2023-05-01T12:11:44.568Z,19.50
2023-05-01T12:13:08.880Z,19.70
2023-05-01T12:14:31.069Z,19.80
2023-05-01T12:15:55.148Z,19.90
2023-05-01T12:17:17.332Z,20.10
2023-05-01T12:18:39.735Z,20.20
2023-05-01T12:20:02.128Z,20.20
2023-05-01T12:21:25.550Z,20.20
2023-05-01T12:22:50.962Z,20.20
2023-05-01T12:24:18.143Z,20.20
2023-05-01T12:25:41.023Z,20.40
2023-05-01T12:27:03.606Z,20.30
2023-05-01T12:28:27.489Z,20.40
2023-05-01T12:29:49.686Z,20.40
2023-05-01T12:31:13.237Z,20.50
2023-05-01T12:32:35.558Z,20.50
2023-05-01T12:34:07.682Z,20.40
2023-05-01T12:35:30.724Z,20.40
2023-05-01T12:36:54.293Z,20.40
2023-05-01T12:38:17.860Z,20.40
2023-05-01T12:39:42.416Z,20.50
2023-05-01T12:41:07.130Z,20.50
2023-05-01T12:42:29.427Z,20.50
2023-05-01T12:43:52.358Z,20.50
2023-05-01T12:45:15.671Z,20.60
2023-05-01T12:46:38.435Z,20.60
2023-05-01T12:48:00.628Z,20.70
2023-05-01T12:49:24.137Z,20.90
2023-05-01T12:50:47.498Z,21.00
2023-05-01T12:52:10.269Z,21.00
2023-05-01T12:53:32.437Z,21.10
2023-05-01T12:55:03.134Z,21.10
2023-05-01T12:56:25.827Z,21.10
2023-05-01T12:57:55.156Z,21.00
2023-05-01T12:59:27.431Z,20.90
2023-05-01T13:00:51.237Z,20.80
2023-05-01T13:02:16.056Z,20.60
2023-05-01T13:03:43.954Z,20.60
2023-05-01T13:05:07.723Z,20.60
2023-05-01T13:06:36.209Z,20.60
2023-05-01T13:07:59.027Z,20.60
2023-05-01T13:09:21.470Z,20.60
2023-05-01T13:10:44.296Z,20.70
2023-05-01T13:12:07.815Z,20.70
2023-05-01T13:13:32.302Z,20.90
2023-05-01T13:14:54.868Z,20.80
2023-05-01T13:16:17.482Z,20.70
2023-05-01T13:17:39.959Z,20.70
2023-05-01T13:19:02.124Z,20.70
2023-05-01T13:20:28.018Z,20.80
2023-05-01T13:21:50.389Z,20.90
2023-05-01T13:23:15.536Z,20.90
2023-05-01T13:24:43.584Z,21.00
2023-05-01T13:26:11.020Z,21.10
2023-05-01T13:27:33.378Z,21.20
2023-05-01T13:28:57.172Z,21.30
2023-05-01T13:30:30.564Z,21.40
2023-05-01T13:31:53.250Z,21.50
2023-05-01T13:33:16.445Z,21.50
2023-05-01T13:34:42.820Z,21.60
2023-05-01T13:36:14.151Z,21.50
2023-05-01T13:37:40.473Z,21.40
2023-05-01T13:39:03.140Z,21.40
2023-05-01T13:40:27.451Z,21.40
2023-05-01T13:41:51.159Z,21.30
2023-05-01T13:43:17.346Z,21.20
2023-05-01T13:44:51.174Z,21.20
2023-05-01T13:46:15.416Z,21.10
2023-05-01T13:47:40.607Z,21.00
2023-05-01T13:49:08.016Z,21.00
2023-05-01T13:50:30.217Z,21.00
2023-05-01T13:51:52.640Z,21.00
2023-05-01T13:53:15.150Z,21.00
2023-05-01T13:54:40.705Z,21.00
2023-05-01T13:56:06.964Z,20.90
2023-05-01T13:57:31.417Z,20.80
2023-05-01T13:58:53.515Z,20.70
2023-05-01T14:00:17.752Z,20.60
2023-05-01T14:01:42.652Z,20.60
2023-05-01T14:03:05.135Z,20.60
2023-05-01T14:04:27.579Z,20.70
2023-05-01T14:05:49.870Z,20.90
2023-05-01T14:07:17.097Z,20.90
2023-05-01T14:08:39.713Z,20.80
2023-05-01T14:10:01.855Z,20.60
2023-05-01T14:11:23.877Z,20.50
2023-05-01T14:12:45.960Z,20.30
2023-05-01T14:14:08.117Z,20.30
2023-05-01T14:15:31.445Z,20.20
2023-05-01T14:16:54.123Z,20.30
2023-05-01T14:18:20.737Z,20.40
2023-05-01T14:19:42.904Z,20.60
2023-05-01T14:21:05.109Z,20.80
2023-05-01T14:22:35.786Z,21.00
2023-05-01T14:23:58.142Z,21.10
2023-05-01T14:25:34.874Z,21.20
2023-05-01T14:26:57.801Z,21.40
2023-05-01T14:28:19.926Z,21.60
2023-05-01T14:29:43.780Z,21.70
2023-05-01T14:31:06.022Z,21.80
2023-05-01T14:32:29.870Z,22.00
2023-05-01T14:34:15.391Z,22.00
2023-05-01T14:35:49.844Z,21.90
2023-05-01T14:37:15.323Z,21.90
2023-05-01T14:38:40.222Z,21.90
2023-05-01T14:40:04.164Z,21.80
2023-05-01T14:41:26.727Z,21.80
2023-05-01T14:42:48.957Z,21.60
2023-05-01T14:44:16.365Z,21.60
2023-05-01T14:45:42.603Z,21.60
2023-05-01T14:47:09.513Z,21.60
2023-05-01T14:48:36.254Z,21.50
2023-05-01T14:49:58.372Z,21.50
2023-05-01T14:51:20.624Z,21.50
2023-05-01T14:52:42.630Z,21.50
2023-05-01T14:54:04.657Z,21.50
2023-05-01T14:55:29.501Z,21.40
2023-05-01T14:56:51.591Z,21.50
2023-05-01T14:58:13.698Z,21.50
2023-05-01T14:59:35.717Z,21.50
2023-05-01T15:00:58.075Z,21.40
2023-05-01T15:02:20.276Z,21.40
2023-05-01T15:03:43.790Z,21.30
2023-05-01T15:05:06.462Z,21.30
2023-05-01T15:06:28.577Z,21.20
2023-05-01T15:07:51.162Z,21.20
2023-05-01T15:09:13.567Z,21.10
2023-05-01T15:10:38.768Z,21.10
2023-05-01T15:12:00.875Z,21.00
2023-05-01T15:13:22.913Z,21.00
2023-05-01T15:14:44.968Z,20.90
2023-05-01T15:16:08.199Z,20.90
2023-05-01T15:17:31.115Z,20.90
2023-05-01T15:18:54.563Z,20.90
2023-05-01T15:20:16.762Z,20.90
2023-05-01T15:21:38.794Z,20.80
2023-05-01T15:23:01.024Z,20.80
2023-05-01T15:24:23.174Z,20.80
2023-05-01T15:25:45.323Z,20.70
2023-05-01T15:27:08.562Z,20.70
2023-05-01T15:28:31.265Z,20.60
2023-05-01T15:29:53.317Z,20.60
2023-05-01T15:31:15.414Z,20.60
2023-05-01T15:32:38.368Z,20.60
2023-05-01T15:34:01.590Z,20.50
2023-05-01T15:35:24.418Z,20.60
2023-05-01T15:36:46.498Z,20.60
2023-05-01T15:38:08.602Z,20.70
2023-05-01T15:39:30.735Z,20.70
2023-05-01T15:40:53.653Z,20.80
2023-05-01T15:42:15.714Z,20.90
2023-05-01T15:43:38.046Z,20.90
2023-05-01T15:45:01.744Z,21.00
2023-05-01T15:46:25.234Z,20.90
2023-05-01T15:47:47.418Z,21.00
2023-05-01T15:49:10.271Z,21.00
2023-05-01T15:50:32.432Z,21.00
2023-05-01T15:51:54.891Z,21.00
2023-05-01T15:53:17.300Z,21.00
2023-05-01T15:54:39.466Z,20.90
2023-05-01T15:56:01.684Z,21.00
2023-05-01T15:57:23.746Z,21.00
2023-05-01T15:58:45.798Z,21.00
2023-05-01T16:00:09.527Z,21.00
2023-05-01T16:01:35.498Z,21.00
2023-05-01T16:02:57.825Z,21.00
2023-05-01T16:04:20.188Z,21.00
2023-05-01T16:05:46.993Z,21.00
2023-05-01T16:07:09.248Z,20.90
2023-05-01T16:08:32.400Z,20.90
2023-05-01T16:09:56.906Z,20.90
2023-05-01T16:11:19.183Z,20.90
2023-05-01T16:12:41.325Z,20.80
2023-05-01T16:14:03.570Z,20.80
2023-05-01T16:15:25.604Z,20.80
2023-05-01T16:16:47.641Z,20.70
2023-05-01T16:18:16.417Z,20.80
2023-05-01T16:19:39.308Z,20.80
2023-05-01T16:21:02.413Z,20.80
2023-05-01T16:22:24.481Z,20.70
2023-05-01T16:23:46.778Z,20.60
2023-05-01T16:25:12.448Z,20.50
2023-05-01T16:26:35.174Z,20.50
2023-05-01T16:27:57.279Z,20.40
2023-05-01T16:29:19.550Z,20.40
2023-05-01T16:30:42.695Z,20.20
2023-05-01T16:32:06.178Z,20.10
2023-05-01T16:33:28.493Z,20.00
2023-05-01T16:34:50.577Z,19.90
2023-05-01T16:36:16.716Z,19.90
2023-05-01T16:37:39.684Z,19.80
2023-05-01T16:39:01.846Z,19.80
2023-05-01T16:40:23.935Z,19.70
2023-05-01T16:41:48.883Z,19.70
2023-05-01T16:43:11.228Z,19.60
2023-05-01T16:44:35.594Z,19.60
2023-05-01T16:45:58.470Z,19.50
2023-05-01T16:47:20.687Z,19.40
2023-05-01T16:48:43.098Z,19.30
2023-05-01T16:50:12.795Z,19.20
2023-05-01T16:51:35.068Z,19.10
2023-05-01T16:52:58.168Z,19.10
2023-05-01T16:54:20.990Z,19.00
2023-05-01T16:55:43.038Z,19.00
2023-05-01T16:57:05.201Z,19.00
2023-05-01T16:58:27.646Z,19.00
2023-05-01T16:59:50.126Z,19.00
2023-05-01T17:01:12.379Z,18.90
2023-05-01T17:02:34.836Z,18.90
2023-05-01T17:03:57.116Z,18.80
2023-05-01T17:05:19.450Z,18.80
2023-05-01T17:06:41.514Z,18.80
2023-05-01T17:08:03.650Z,18.80
2023-05-01T17:09:26.482Z,18.80
2023-05-01T17:10:48.601Z,18.80
2023-05-01T17:12:10.656Z,18.80
2023-05-01T17:13:32.977Z,18.70
2023-05-01T17:14:55.235Z,18.70
2023-05-01T17:16:19.336Z,18.70
2023-05-01T17:17:41.564Z,18.70
2023-05-01T17:19:08.796Z,18.70
2023-05-01T17:20:30.950Z,18.70
2023-05-01T17:21:53.014Z,18.70
2023-05-01T17:23:15.231Z,18.70
2023-05-01T17:24:37.532Z,18.70
2023-05-01T17:25:59.589Z,18.60
2023-05-01T17:27:21.801Z,18.60
2023-05-01T17:28:46.938Z,18.60
2023-05-01T17:30:09.208Z,18.60
2023-05-01T17:31:31.848Z,18.60
2023-05-01T17:32:54.171Z,18.60
2023-05-01T17:34:16.262Z,18.60
2023-05-01T17:35:38.317Z,18.70
2023-05-01T17:37:00.340Z,18.70
2023-05-01T17:38:22.361Z,18.80
2023-05-01T17:39:44.576Z,18.80
2023-05-01T17:41:06.929Z,18.90
2023-05-01T17:42:28.989Z,19.00
2023-05-01T17:43:51.059Z,19.10
2023-05-01T17:45:13.215Z,19.20
2023-05-01T17:46:36.033Z,19.20
2023-05-01T17:47:58.464Z,19.20
2023-05-01T17:49:20.732Z,19.20
2023-05-01T17:50:42.897Z,19.30
2023-05-01T17:52:05.988Z,19.20
2023-05-01T17:53:28.063Z,19.20
2023-05-01T17:54:50.174Z,19.20
2023-05-01T17:56:12.302Z,19.20
2023-05-01T17:57:34.551Z,19.20
2023-05-01T17:58:56.638Z,19.10
2023-05-01T18:00:19.238Z,19.00
2023-05-01T18:01:41.405Z,18.90
2023-05-01T18:03:04.637Z,18.70
2023-05-01T18:04:27.624Z,18.60
2023-05-01T18:05:49.680Z,18.40
2023-05-01T18:07:12.041Z,18.30
2023-05-01T18:08:34.401Z,18.20
2023-05-01T18:09:59.255Z,18.00
2023-05-01T18:11:21.616Z,18.00